Time;durP1;ratioP1;P1;durP2;ratioP2;P2;SDS_P1;SDS_P2;PMS_P1;PMS_P2;Temp;Humidity;BMP_temperature;BMP_pressure;BME280_temperature;BME280_humidity;BME280_pressure;Samples;Min_cycle;Max_cycle;Signal;HPM_P1;HPM_P2
2022/02/12 00:00:57;;;;;;;16.08;8.98;;;9.80;96.70;;;;;;5122045;27;20042;-83
2022/02/12 00:03:26;;;;;;;12.32;8.20;;;9.80;96.70;;;;;;5121922;27;20095;-83
2022/02/12 00:05:54;;;;;;;13.00;7.93;;;9.80;96.70;;;;;;5123166;27;20035;-83
2022/02/12 00:08:22;;;;;;;13.30;8.27;;;9.80;96.70;;;;;;5102930;27;20043;-83
2022/02/12 00:10:50;;;;;;;14.32;8.27;;;9.70;96.70;;;;;;5115729;27;20036;-83
2022/02/12 00:13:20;;;;;;;12.55;7.85;;;9.70;96.70;;;;;;5123355;27;20446;-83
2022/02/12 00:15:48;;;;;;;17.25;8.48;;;9.60;96.70;;;;;;5105823;27;20043;-83
2022/02/12 00:18:16;;;;;;;12.80;8.20;;;9.60;96.70;;;;;;5121432;27;20039;-83
2022/02/12 00:20:44;;;;;;;13.15;8.55;;;9.60;96.70;;;;;;5119791;27;20035;-83
2022/02/12 00:23:12;;;;;;;12.52;8.20;;;9.60;96.70;;;;;;5104234;27;20480;-83
2022/02/12 00:25:40;;;;;;;13.23;8.63;;;9.60;96.70;;;;;;5118817;27;20046;-83
2022/02/12 00:28:08;;;;;;;12.63;8.75;;;9.60;96.70;;;;;;5105090;28;20106;-82
2022/02/12 00:30:37;;;;;;;13.05;9.90;;;9.50;96.70;;;;;;5115876;27;20124;-83
2022/02/12 00:33:07;;;;;;;14.75;8.40;;;9.50;96.70;;;;;;5118440;27;20040;-83
2022/02/12 00:35:35;;;;;;;13.80;9.30;;;9.50;96.70;;;;;;5120099;27;20058;-83
2022/02/12 00:38:03;;;;;;;14.05;8.90;;;9.50;96.70;;;;;;5119540;28;20505;-83
2022/02/12 00:40:31;;;;;;;13.80;8.30;;;9.50;96.70;;;;;;5122496;27;20380;-83
2022/02/12 00:42:59;;;;;;;14.00;8.82;;;9.50;96.70;;;;;;5117141;28;20050;-84
2022/02/12 00:45:27;;;;;;;12.77;8.90;;;9.50;96.70;;;;;;5118821;28;20043;-83
2022/02/12 00:47:57;;;;;;;15.07;8.82;;;9.40;96.70;;;;;;5108954;28;20043;-83
2022/02/12 00:50:25;;;;;;;15.52;9.32;;;9.40;96.70;;;;;;5119702;28;20047;-83
2022/02/12 00:52:54;;;;;;;15.60;8.93;;;9.40;96.70;;;;;;5118216;27;20036;-83
2022/02/12 00:55:24;;;;;;;14.32;9.15;;;9.40;96.70;;;;;;5101259;28;20047;-83
2022/02/12 00:57:52;;;;;;;12.68;8.75;;;9.40;96.70;;;;;;5115837;27;20495;-83
2022/02/12 01:00:21;;;;;;;13.23;9.40;;;9.40;96.70;;;;;;5101787;27;20035;-83
2022/02/12 01:02:49;;;;;;;14.90;9.40;;;9.30;96.70;;;;;;5119268;28;20047;-83
2022/02/12 01:05:19;;;;;;;15.82;10.15;;;9.30;96.70;;;;;;5115378;27;20078;-83
2022/02/12 01:07:48;;;;;;;14.07;9.35;;;9.30;96.70;;;;;;5118554;27;20040;-83
2022/02/12 01:10:16;;;;;;;12.43;9.15;;;9.30;96.70;;;;;;5106660;27;20107;-83
2022/02/12 01:12:45;;;;;;;12.23;8.35;;;9.10;96.70;;;;;;5119512;27;20047;-83
2022/02/12 01:15:14;;;;;;;12.50;8.98;;;8.90;96.70;;;;;;5125105;27;20045;-83
2022/02/12 01:17:44;;;;;;;14.77;9.55;;;8.90;96.70;;;;;;5122791;27;20046;-83
2022/02/12 01:20:12;;;;;;;16.25;10.77;;;8.90;96.70;;;;;;5124816;27;20116;-83
2022/02/12 01:22:46;;;;;;;16.45;10.80;;;8.80;96.70;;;;;;5126016;27;20509;-83
2022/02/12 01:25:14;;;;;;;18.73;10.75;;;8.90;96.70;;;;;;5135767;27;20035;-83
2022/02/12 01:27:44;;;;;;;20.65;11.18;;;8.90;96.70;;;;;;5106988;27;20046;-83
2022/02/12 01:30:12;;;;;;;15.07;11.18;;;9.00;96.70;;;;;;5108757;27;20182;-83
2022/02/12 01:32:41;;;;;;;19.63;11.85;;;8.90;96.70;;;;;;5120800;27;20058;-83
2022/02/12 01:35:10;;;;;;;17.13;11.70;;;8.80;96.70;;;;;;5122853;27;20092;-83
2022/02/12 01:37:41;;;;;;;21.50;13.02;;;8.80;96.70;;;;;;5122860;27;20043;-83
2022/02/12 01:40:12;;;;;;;18.35;12.80;;;8.90;96.70;;;;;;5122618;27;20031;-83
2022/02/12 01:42:41;;;;;;;21.08;14.30;;;8.90;96.70;;;;;;5123843;27;20047;-83
2022/02/12 01:45:09;;;;;;;20.63;15.50;;;9.10;96.70;;;;;;5121455;27;20131;-83
2022/02/12 01:47:38;;;;;;;24.05;15.93;;;9.20;96.70;;;;;;5124016;27;20055;-83
2022/02/12 01:50:08;;;;;;;23.63;16.45;;;9.40;96.70;;;;;;5124454;27;20060;-83
2022/02/12 01:52:37;;;;;;;22.38;16.42;;;9.50;96.70;;;;;;5123113;27;20111;-83
2022/02/12 01:55:07;;;;;;;23.45;17.25;;;9.60;96.70;;;;;;5121725;27;20396;-83
2022/02/12 01:57:37;;;;;;;25.63;16.65;;;9.70;96.70;;;;;;5117320;27;20048;-83
2022/02/12 02:00:08;;;;;;;25.10;17.50;;;9.90;96.70;;;;;;5117486;27;20071;-83
2022/02/12 02:02:39;;;;;;;26.73;16.85;;;9.90;96.70;;;;;;5117658;27;20058;-83
2022/02/12 02:05:09;;;;;;;22.60;16.73;;;10.00;96.70;;;;;;5124425;27;20046;-83
2022/02/12 02:07:38;;;;;;;26.20;18.15;;;10.00;96.70;;;;;;5105781;27;20051;-83
2022/02/12 02:10:09;;;;;;;26.50;18.42;;;10.00;96.70;;;;;;5108502;27;20271;-83
2022/02/12 02:12:40;;;;;;;28.48;18.20;;;9.90;96.70;;;;;;5118516;27;20043;-83
2022/02/12 02:15:09;;;;;;;26.17;18.63;;;9.90;96.70;;;;;;5120833;27;20101;-83
2022/02/12 02:17:38;;;;;;;25.35;17.95;;;9.90;96.70;;;;;;5118343;27;20078;-81
2022/02/12 02:20:07;;;;;;;22.85;17.13;;;9.80;96.70;;;;;;5121068;27;20042;-83
2022/02/12 02:22:50;;;;;;;26.45;18.17;;;9.80;96.70;;;;;;5122517;27;20153;-84
2022/02/12 02:25:18;;;;;;;25.65;17.88;;;9.70;96.70;;;;;;5121356;27;20059;-85
2022/02/12 02:27:47;;;;;;;28.08;19.40;;;9.70;96.70;;;;;;5122807;27;20043;-85
2022/02/12 02:30:17;;;;;;;29.20;19.80;;;9.70;96.70;;;;;;5117816;27;20043;-85
2022/02/12 02:32:46;;;;;;;27.55;19.52;;;9.70;96.70;;;;;;5121420;27;20031;-83
2022/02/12 02:35:19;;;;;;;29.65;21.13;;;9.70;96.70;;;;;;5131838;27;20076;-83
2022/02/12 02:37:50;;;;;;;30.52;21.73;;;9.80;96.70;;;;;;5120609;27;20058;-83
2022/02/12 02:40:20;;;;;;;30.00;21.15;;;9.90;96.70;;;;;;5120445;27;20130;-83
2022/02/12 02:42:50;;;;;;;30.77;21.20;;;10.00;96.70;;;;;;5116190;27;20043;-84
2022/02/12 02:45:19;;;;;;;31.73;22.05;;;10.10;96.70;;;;;;5120761;27;20043;-83
2022/02/12 02:47:48;;;;;;;31.35;21.42;;;10.10;96.70;;;;;;5123799;27;20051;-83
2022/02/12 02:56:00;;;;;;;31.83;21.58;;;10.30;96.70;;;;;;5123683;27;20043;-83
2022/02/12 02:58:33;;;;;;;30.02;21.60;;;10.30;96.70;;;;;;5123422;27;20039;-83
2022/02/12 03:01:05;;;;;;;31.20;22.02;;;10.30;96.70;;;;;;5104193;27;20039;-83
2022/02/12 03:03:34;;;;;;;31.25;22.00;;;10.40;96.70;;;;;;5119412;27;20183;-83
2022/02/12 03:06:03;;;;;;;29.27;20.83;;;10.40;96.70;;;;;;5123455;27;20464;-83
2022/02/12 03:08:33;;;;;;;30.45;21.92;;;10.50;96.70;;;;;;5124004;27;20089;-83
2022/02/12 03:11:02;;;;;;;30.83;23.08;;;10.50;96.70;;;;;;5123457;27;20040;-83
2022/02/12 03:13:30;;;;;;;31.40;22.35;;;10.50;96.70;;;;;;5104318;27;20121;-83
2022/02/12 03:15:59;;;;;;;33.03;22.73;;;10.50;96.70;;;;;;5120045;27;20050;-83
2022/02/12 03:18:28;;;;;;;35.45;24.40;;;10.50;96.70;;;;;;5117831;27;20496;-83
2022/02/12 03:20:56;;;;;;;33.90;24.23;;;10.50;96.70;;;;;;5123084;27;20067;-83
2022/02/12 03:23:25;;;;;;;34.60;23.13;;;10.50;96.70;;;;;;5116496;27;20035;-83
2022/02/12 03:25:55;;;;;;;34.75;22.30;;;10.50;96.70;;;;;;5103058;27;20047;-83
2022/02/12 03:28:23;;;;;;;32.60;23.70;;;10.50;96.70;;;;;;5119760;27;20047;-83
2022/02/12 03:30:52;;;;;;;34.15;23.25;;;10.50;96.70;;;;;;5103833;27;20446;-83
2022/02/12 03:33:20;;;;;;;29.52;21.77;;;10.50;96.70;;;;;;5116574;27;20098;-82
2022/02/12 03:35:49;;;;;;;30.35;22.42;;;10.50;96.70;;;;;;5120460;27;20325;-83
2022/02/12 03:38:20;;;;;;;31.90;23.42;;;10.50;96.70;;;;;;5118271;27;20039;-83
2022/02/12 03:40:50;;;;;;;34.88;24.52;;;10.50;96.70;;;;;;5122746;27;20047;-83
2022/02/12 03:43:20;;;;;;;30.60;22.05;;;10.50;96.70;;;;;;5116777;27;20051;-83
2022/02/12 03:45:49;;;;;;;32.15;22.45;;;10.50;96.70;;;;;;5120677;27;20039;-83
2022/02/12 03:48:18;;;;;;;29.10;21.67;;;10.50;96.70;;;;;;5118574;27;20051;-83
2022/02/12 03:50:46;;;;;;;32.78;22.20;;;10.40;96.70;;;;;;5123214;27;20524;-83
2022/02/12 03:53:15;;;;;;;29.73;21.92;;;10.40;96.70;;;;;;5097622;28;20047;-82
2022/02/12 03:55:44;;;;;;;31.60;21.90;;;10.40;96.70;;;;;;5106070;27;20049;-84
2022/02/12 03:58:14;;;;;;;28.83;20.42;;;10.40;96.70;;;;;;5122768;27;20046;-83
2022/02/12 04:00:45;;;;;;;27.63;20.75;;;10.40;96.70;;;;;;5121339;27;20035;-83
2022/02/12 04:03:14;;;;;;;32.15;22.63;;;10.30;96.70;;;;;;5133887;27;20057;-83
2022/02/12 04:05:46;;;;;;;29.20;19.92;;;10.30;96.70;;;;;;5104530;27;20035;-82
2022/02/12 04:08:18;;;;;;;25.50;19.00;;;10.30;96.70;;;;;;5115700;27;20051;-82
2022/02/12 04:10:48;;;;;;;24.33;18.80;;;10.30;96.70;;;;;;5131370;27;20107;-83
2022/02/12 04:13:17;;;;;;;27.02;18.85;;;10.30;96.70;;;;;;5101988;27;20559;-83
2022/02/12 04:15:47;;;;;;;22.05;17.13;;;10.30;96.70;;;;;;5118590;27;20051;-83
2022/02/12 04:18:17;;;;;;;23.98;18.23;;;10.30;96.70;;;;;;5104027;27;20098;-83
2022/02/12 04:20:46;;;;;;;25.77;18.13;;;10.30;96.70;;;;;;5117036;27;20566;-83
2022/02/12 04:23:15;;;;;;;22.92;16.63;;;10.30;96.70;;;;;;5101385;27;20035;-83
2022/02/12 04:25:43;;;;;;;24.08;16.95;;;10.30;96.70;;;;;;5122870;27;20063;-83
2022/02/12 04:28:12;;;;;;;21.52;16.05;;;10.30;96.70;;;;;;5123132;27;20043;-83
2022/02/12 04:30:41;;;;;;;22.77;16.05;;;10.30;96.70;;;;;;5096769;28;20175;-82
2022/02/12 04:33:11;;;;;;;20.00;15.63;;;10.30;96.70;;;;;;5116485;27;20054;-83
2022/02/12 04:35:40;;;;;;;19.35;15.23;;;10.30;96.70;;;;;;5102018;28;20051;-83
2022/02/12 04:38:08;;;;;;;20.92;15.38;;;10.30;96.70;;;;;;5115730;27;20250;-83
2022/02/12 04:40:37;;;;;;;17.73;14.07;;;10.20;96.70;;;;;;5116961;27;20497;-83
2022/02/12 04:43:06;;;;;;;20.05;14.32;;;10.20;96.70;;;;;;5109175;27;20108;-83
2022/02/12 04:45:35;;;;;;;17.70;13.68;;;10.20;96.70;;;;;;5125505;27;20043;-85
2022/02/12 04:48:05;;;;;;;16.60;11.93;;;10.20;96.70;;;;;;5106120;27;20115;-83
2022/02/12 04:50:35;;;;;;;14.55;11.38;;;10.10;96.70;;;;;;5123610;27;20054;-84
2022/02/12 04:53:05;;;;;;;15.82;11.80;;;10.10;96.70;;;;;;5108040;27;20408;-84
2022/02/12 04:55:34;;;;;;;14.88;12.15;;;10.10;96.70;;;;;;5123235;27;20046;-83
2022/02/12 04:58:05;;;;;;;15.25;10.93;;;10.10;96.70;;;;;;5110206;27;20148;-82
2022/02/12 05:00:35;;;;;;;11.52;9.57;;;10.00;96.70;;;;;;5122080;27;20039;-82
2022/02/12 05:03:03;;;;;;;13.15;9.13;;;10.00;96.70;;;;;;5117794;27;20047;-82
2022/02/12 05:05:32;;;;;;;10.32;7.88;;;10.00;96.70;;;;;;5124269;27;20369;-82
2022/02/12 05:08:02;;;;;;;12.00;8.90;;;9.90;96.70;;;;;;5109920;27;20047;-82
2022/02/12 05:10:31;;;;;;;11.13;8.73;;;9.90;96.70;;;;;;5096604;27;20043;-82
2022/02/12 05:13:00;;;;;;;11.77;8.82;;;9.90;96.70;;;;;;5121441;27;20151;-82
2022/02/12 05:15:28;;;;;;;10.57;7.72;;;9.90;96.70;;;;;;5116290;27;20037;-82
2022/02/12 05:17:56;;;;;;;9.93;7.35;;;9.90;96.70;;;;;;5120346;27;20555;-82
2022/02/12 05:20:28;;;;;;;10.25;7.40;;;9.80;96.70;;;;;;5123055;27;20039;-83
2022/02/12 05:22:56;;;;;;;9.77;7.35;;;9.80;96.70;;;;;;5120524;27;20050;-82
2022/02/12 05:25:26;;;;;;;9.10;6.68;;;9.70;96.70;;;;;;5104727;27;20118;-82
2022/02/12 05:27:54;;;;;;;8.35;4.65;;;9.70;96.70;;;;;;5109426;27;20039;-82
2022/02/12 05:30:22;;;;;;;7.68;4.22;;;9.70;96.70;;;;;;5105631;27;20031;-82
2022/02/12 05:32:51;;;;;;;5.63;3.58;;;9.80;96.70;;;;;;5121710;27;20047;-81
2022/02/12 05:35:19;;;;;;;4.40;2.92;;;9.80;96.70;;;;;;5119236;27;20067;-82
2022/02/12 05:37:47;;;;;;;3.50;2.80;;;9.80;96.70;;;;;;5120145;27;20039;-82
2022/02/12 05:40:15;;;;;;;3.03;2.25;;;9.80;96.70;;;;;;5122482;27;20096;-81
2022/02/12 05:42:46;;;;;;;3.83;2.25;;;9.80;96.70;;;;;;5107084;27;20046;-82
2022/02/12 05:45:14;;;;;;;3.10;1.60;;;9.80;96.70;;;;;;5137417;27;20036;-82
2022/02/12 05:47:43;;;;;;;3.20;1.75;;;9.70;96.70;;;;;;5121570;27;20051;-82
2022/02/12 05:50:11;;;;;;;2.30;1.60;;;9.70;96.70;;;;;;5123563;27;20051;-82
2022/02/12 05:52:39;;;;;;;1.85;1.38;;;9.70;96.70;;;;;;5104732;27;20110;-82
2022/02/12 05:55:08;;;;;;;2.65;1.52;;;9.70;96.70;;;;;;5116924;27;20039;-82
2022/02/12 05:57:36;;;;;;;1.92;1.30;;;9.70;96.70;;;;;;5123454;27;20054;-82
2022/02/12 06:00:07;;;;;;;2.00;1.40;;;9.70;96.70;;;;;;5122257;27;20043;-82
2022/02/12 06:02:39;;;;;;;3.15;1.10;;;9.70;96.70;;;;;;5121021;27;20078;-82
2022/02/12 06:05:08;;;;;;;2.75;1.30;;;9.70;96.70;;;;;;5123481;27;20035;-82
2022/02/12 06:07:36;;;;;;;2.08;1.00;;;9.70;96.70;;;;;;5102982;27;20103;-82
2022/02/12 06:10:05;;;;;;;1.60;1.00;;;9.70;96.70;;;;;;5102850;27;20216;-82
2022/02/12 06:12:33;;;;;;;1.33;0.63;;;9.70;96.70;;;;;;5106650;27;20051;-83
2022/02/12 06:15:01;;;;;;;2.28;0.90;;;9.60;96.70;;;;;;5125446;27;20035;-82
2022/02/12 06:17:31;;;;;;;2.58;1.05;;;9.60;96.70;;;;;;5123784;27;20039;-82
2022/02/12 06:20:00;;;;;;;2.20;0.82;;;9.60;96.70;;;;;;5121012;27;20501;-82
2022/02/12 06:22:29;;;;;;;1.20;0.77;;;9.60;96.70;;;;;;5102707;27;20062;-82
2022/02/12 06:24:57;;;;;;;1.95;0.73;;;9.50;96.70;;;;;;5103413;27;20500;-82
2022/02/12 06:27:25;;;;;;;1.15;0.55;;;9.60;96.70;;;;;;5116935;27;20039;-81
2022/02/12 06:29:54;;;;;;;1.17;0.73;;;9.50;96.70;;;;;;5107620;27;20051;-82
2022/02/12 06:32:22;;;;;;;1.65;0.65;;;9.50;96.70;;;;;;5104052;27;20060;-82
2022/02/12 06:34:56;;;;;;;1.92;0.68;;;9.60;96.70;;;;;;5123075;27;20043;-82
2022/02/12 06:37:24;;;;;;;1.00;0.52;;;9.50;96.70;;;;;;5122334;27;20122;-82
2022/02/12 06:39:52;;;;;;;1.52;0.52;;;9.60;96.70;;;;;;5120234;27;20605;-82
2022/02/12 06:42:21;;;;;;;0.90;0.40;;;9.60;96.70;;;;;;5120697;27;20464;-82
2022/02/12 06:44:49;;;;;;;1.73;0.60;;;9.60;96.70;;;;;;5124341;27;20063;-82
2022/02/12 06:47:18;;;;;;;2.53;0.50;;;9.60;96.70;;;;;;5120589;27;20047;-82
2022/02/12 06:49:46;;;;;;;0.90;0.40;;;9.70;96.70;;;;;;5115305;27;20319;-82
2022/02/12 06:52:16;;;;;;;1.58;0.35;;;9.70;96.70;;;;;;5119202;27;20061;-82
2022/02/12 06:54:44;;;;;;;0.98;0.40;;;9.70;96.70;;;;;;5106103;27;20126;-84
2022/02/12 06:57:13;;;;;;;0.98;0.30;;;9.70;96.70;;;;;;5106193;27;20046;-88
2022/02/12 06:59:43;;;;;;;0.40;0.15;;;9.70;96.70;;;;;;5139512;27;20555;-84
2022/02/12 07:02:11;;;;;;;0.93;0.17;;;9.70;96.70;;;;;;5102877;28;20124;-83
2022/02/12 07:04:39;;;;;;;0.57;0.30;;;9.70;96.70;;;;;;5102984;27;20413;-85
2022/02/12 07:07:07;;;;;;;2.45;0.55;;;9.70;96.70;;;;;;5107664;27;20323;-83
2022/02/12 07:09:37;;;;;;;0.52;0.20;;;9.70;96.70;;;;;;5117797;27;20039;-85
2022/02/12 07:12:09;;;;;;;0.52;0.20;;;9.70;96.70;;;;;;5113959;27;20108;-86
2022/02/12 07:14:37;;;;;;;0.50;0.20;;;9.80;96.70;;;;;;5117075;27;20082;-84
2022/02/12 07:17:05;;;;;;;0.32;0.15;;;9.80;96.70;;;;;;5123269;27;20039;-84
2022/02/12 07:19:36;;;;;;;1.35;0.20;;;9.90;96.70;;;;;;5120714;27;20371;-82
2022/02/12 07:22:05;;;;;;;0.32;0.20;;;9.90;96.70;;;;;;5117118;27;20054;-85
2022/02/12 07:24:33;;;;;;;0.32;0.15;;;9.90;96.70;;;;;;5125411;27;20035;-82
2022/02/12 07:27:03;;;;;;;0.50;0.10;;;10.00;96.70;;;;;;5118078;27;20193;-84
2022/02/12 07:29:31;;;;;;;0.80;0.10;;;10.00;96.70;;;;;;5122367;27;20103;-84
2022/02/12 07:31:59;;;;;;;0.98;0.30;;;10.00;96.70;;;;;;5120189;27;20053;-83
2022/02/12 07:34:28;;;;;;;0.75;0.20;;;10.00;96.70;;;;;;5121550;27;20046;-84
2022/02/12 07:36:56;;;;;;;1.63;0.40;;;10.10;96.70;;;;;;5118499;27;20039;-84
2022/02/12 07:39:25;;;;;;;0.28;0.20;;;10.10;96.70;;;;;;5129367;27;20059;-85
2022/02/12 07:41:53;;;;;;;1.38;0.30;;;10.10;96.70;;;;;;5120731;27;20421;-85
2022/02/12 07:44:23;;;;;;;1.02;0.60;;;10.20;96.70;;;;;;5119909;27;20039;-84
2022/02/12 07:46:51;;;;;;;0.95;0.40;;;10.20;96.70;;;;;;5117862;27;20355;-84
2022/02/12 07:49:19;;;;;;;7.22;0.40;;;10.20;96.70;;;;;;5114510;27;20530;-81
2022/02/12 07:51:48;;;;;;;0.98;0.30;;;10.20;96.70;;;;;;5119608;27;20051;-80
2022/02/12 07:54:17;;;;;;;1.30;0.40;;;10.30;96.70;;;;;;5117500;27;20087;-80
2022/02/12 07:56:46;;;;;;;1.55;0.30;;;10.30;96.70;;;;;;5101981;27;20046;-80
2022/02/12 07:59:14;;;;;;;1.40;0.32;;;10.30;96.70;;;;;;5120069;27;20050;-80
2022/02/12 08:01:43;;;;;;;1.17;0.52;;;10.40;96.70;;;;;;5118899;27;20039;-81
2022/02/12 08:04:12;;;;;;;2.45;0.60;;;10.40;96.70;;;;;;5114189;27;20774;-82
2022/02/12 08:09:27;;;;;;;1.45;0.35;;;10.40;96.70;;;;;;5121179;27;20039;-80
2022/02/12 08:12:06;;;;;;;2.50;0.70;;;10.40;96.70;;;;;;5093856;27;20042;-78
2022/02/12 08:14:35;;;;;;;1.15;0.32;;;10.40;96.70;;;;;;5116191;27;20050;-81
2022/02/12 08:17:04;;;;;;;1.75;0.40;;;10.40;96.70;;;;;;5105311;27;20661;-80
2022/02/12 08:19:34;;;;;;;3.08;0.30;;;10.50;96.70;;;;;;5104186;27;20062;-80
2022/02/12 08:22:06;;;;;;;1.05;0.25;;;10.50;96.70;;;;;;5121391;27;20514;-82
2022/02/12 08:24:35;;;;;;;2.70;0.40;;;10.50;96.70;;;;;;5119333;27;20634;-82
2022/02/12 08:27:05;;;;;;;2.17;0.40;;;10.50;96.70;;;;;;5116790;27;20416;-80
2022/02/12 08:29:33;;;;;;;0.88;0.30;;;10.50;96.70;;;;;;5120987;27;20081;-81
2022/02/12 08:32:02;;;;;;;1.98;0.52;;;10.50;96.70;;;;;;5120269;27;20092;-81
2022/02/12 08:34:31;;;;;;;1.10;0.50;;;10.60;96.70;;;;;;5113875;27;20389;-82
2022/02/12 08:37:00;;;;;;;1.42;0.50;;;10.60;96.70;;;;;;5115684;27;20134;-81
2022/02/12 08:39:28;;;;;;;4.68;0.85;;;10.60;96.70;;;;;;5112594;27;20672;-81
2022/02/12 08:41:57;;;;;;;1.80;0.50;;;10.60;96.70;;;;;;5115918;27;20039;-81
2022/02/12 08:44:25;;;;;;;3.70;0.77;;;10.60;96.70;;;;;;5114433;27;20043;-81
2022/02/12 08:46:53;;;;;;;3.97;0.55;;;10.70;96.70;;;;;;5115663;27;20136;-81
2022/02/12 08:49:22;;;;;;;2.63;0.68;;;10.70;96.70;;;;;;5102059;28;20053;-83
2022/02/12 08:51:51;;;;;;;1.10;0.38;;;10.80;96.70;;;;;;5120315;27;20123;-86
2022/02/12 08:54:19;;;;;;;7.53;4.20;;;10.80;96.70;;;;;;5108032;27;20043;-84
2022/02/12 08:56:48;;;;;;;5.32;1.15;;;10.80;96.70;;;;;;5120373;27;20044;-84
2022/02/12 08:59:16;;;;;;;4.10;1.08;;;10.90;96.70;;;;;;5112543;27;20039;-84
2022/02/12 09:02:04;;;;;;;2.67;0.90;;;10.90;96.70;;;;;;5120019;27;20046;-83
2022/02/12 09:04:34;;;;;;;2.30;0.60;;;10.90;96.70;;;;;;5118286;27;20118;-84
2022/02/12 09:07:05;;;;;;;2.00;0.60;;;10.90;96.70;;;;;;5097036;28;20747;-84
2022/02/12 09:09:33;;;;;;;5.00;1.38;;;10.90;96.70;;;;;;5117701;28;20088;-85
2022/02/12 09:12:02;;;;;;;1.13;0.50;;;11.00;96.70;;;;;;5120815;27;20495;-84
2022/02/12 09:14:30;;;;;;;1.45;0.65;;;11.00;96.70;;;;;;5115845;27;20035;-84
2022/02/12 09:16:58;;;;;;;1.65;0.52;;;11.10;96.70;;;;;;5119094;27;20545;-83
2022/02/12 09:19:26;;;;;;;3.92;0.82;;;11.10;96.70;;;;;;5116412;27;20050;-83
2022/02/12 09:21:55;;;;;;;4.97;0.95;;;11.10;96.70;;;;;;5097957;27;20129;-83
2022/02/12 09:24:24;;;;;;;1.85;0.70;;;11.20;96.70;;;;;;5120961;27;20560;-84
2022/02/12 09:26:53;;;;;;;4.25;0.68;;;11.30;96.70;;;;;;5119672;27;20031;-83
2022/02/12 09:29:21;;;;;;;5.35;1.30;;;11.30;96.70;;;;;;5102704;27;20150;-83
2022/02/12 09:31:50;;;;;;;4.38;0.98;;;11.40;96.70;;;;;;5122031;27;20039;-86
2022/02/12 09:34:20;;;;;;;3.83;0.60;;;11.40;96.70;;;;;;5124283;27;20559;-83
2022/02/12 09:36:48;;;;;;;3.22;0.60;;;11.40;96.70;;;;;;5117096;27;20385;-81
2022/02/12 09:39:17;;;;;;;2.42;0.60;;;11.40;96.70;;;;;;5118493;27;20035;-82
2022/02/12 09:41:48;;;;;;;2.38;0.70;;;11.50;96.70;;;;;;5116761;27;20092;-81
2022/02/12 09:44:17;;;;;;;2.22;0.52;;;11.60;96.70;;;;;;5121497;27;20100;-82
2022/02/12 09:47:24;;;;;;;2.95;0.63;;;11.60;96.70;;;;;;5104108;27;20787;-85
2022/02/12 09:49:57;;;;;;;1.23;0.45;;;11.60;96.70;;;;;;5102325;28;20394;-80
2022/02/12 09:52:29;;;;;;;2.90;0.77;;;11.60;96.70;;;;;;5134085;27;20039;-82
2022/02/12 09:54:59;;;;;;;2.78;0.50;;;11.70;96.70;;;;;;5104069;27;20067;-82
2022/02/12 09:57:29;;;;;;;2.05;0.57;;;11.80;96.70;;;;;;5105502;27;20039;-82
2022/02/12 09:59:58;;;;;;;4.53;1.52;;;11.80;96.70;;;;;;5120705;27;20517;-81
2022/02/12 10:02:26;;;;;;;1.65;0.60;;;11.90;96.70;;;;;;5125357;27;20122;-81
2022/02/12 10:05:19;;;;;;;2.13;0.70;;;12.00;96.70;;;;;;5114381;27;20051;-81
2022/02/12 10:07:49;;;;;;;4.10;0.77;;;12.00;96.70;;;;;;5104696;27;20043;-82
2022/02/12 10:10:19;;;;;;;2.15;0.45;;;12.00;96.70;;;;;;5120357;27;20038;-81
2022/02/12 10:12:49;;;;;;;3.13;0.60;;;12.00;96.70;;;;;;5123964;27;20464;-81
2022/02/12 10:15:26;;;;;;;3.72;0.45;;;12.00;96.70;;;;;;5120362;27;20039;-82
2022/02/12 10:17:56;;;;;;;1.77;0.57;;;12.10;96.70;;;;;;5119709;27;20450;-82
2022/02/12 10:20:28;;;;;;;3.42;0.75;;;12.20;96.70;;;;;;5103730;27;20051;-83
2022/02/12 10:23:06;;;;;;;3.45;0.50;;;12.30;96.70;;;;;;5116545;27;20053;-83
2022/02/12 10:25:36;;;;;;;2.08;0.80;;;12.40;96.70;;;;;;5118406;27;20062;-83
2022/02/12 10:28:07;;;;;;;0.88;0.52;;;12.40;96.70;;;;;;5120790;27;20044;-83
2022/02/12 10:30:35;;;;;;;1.98;0.60;;;12.50;96.70;;;;;;5124301;27;20051;-87
2022/02/12 10:33:05;;;;;;;1.83;0.50;;;12.60;96.70;;;;;;5119936;27;20059;-84
2022/02/12 10:35:35;;;;;;;1.17;0.50;;;12.60;96.70;;;;;;5118910;27;20051;-84
2022/02/12 10:38:05;;;;;;;1.27;0.43;;;12.60;96.70;;;;;;5121005;27;20035;-84
2022/02/12 10:40:34;;;;;;;2.47;1.00;;;12.70;96.70;;;;;;5122060;27;20047;-85
2022/02/12 10:43:05;;;;;;;4.88;1.17;;;12.80;96.70;;;;;;5118624;27;20570;-81
2022/02/12 10:45:34;;;;;;;4.32;1.77;;;12.80;96.70;;;;;;5122355;27;20155;-84
2022/02/12 10:48:03;;;;;;;3.63;0.80;;;12.70;96.70;;;;;;5122807;27;20125;-84
2022/02/12 10:50:32;;;;;;;2.85;0.80;;;12.80;96.70;;;;;;5106766;27;20045;-83
2022/02/12 10:53:05;;;;;;;1.33;0.50;;;12.80;96.70;;;;;;5100354;27;20151;-83
2022/02/12 10:55:35;;;;;;;3.63;0.70;;;12.80;96.70;;;;;;5122904;27;20042;-83
2022/02/12 10:58:06;;;;;;;2.63;0.70;;;12.90;96.70;;;;;;5121811;27;20152;-83
2022/02/12 11:00:37;;;;;;;3.10;0.60;;;13.00;96.70;;;;;;5100318;27;20146;-81
2022/02/12 11:03:16;;;;;;;0.70;0.40;;;13.10;96.70;;;;;;5101846;27;20047;-82
2022/02/12 11:05:51;;;;;;;3.65;0.85;;;13.10;96.70;;;;;;5130995;27;20047;-81
2022/02/12 11:08:21;;;;;;;1.80;0.55;;;13.10;96.70;;;;;;5114400;27;20047;-82
2022/02/12 11:10:49;;;;;;;4.30;0.88;;;13.10;96.70;;;;;;5117065;27;20039;-82
2022/02/12 11:13:21;;;;;;;1.95;0.80;;;13.10;96.70;;;;;;5119287;27;20100;-82
2022/02/12 11:15:51;;;;;;;1.83;0.40;;;13.20;96.70;;;;;;5117443;27;20047;-82
2022/02/12 11:18:21;;;;;;;2.28;0.50;;;13.20;96.70;;;;;;5130489;27;20036;-82
2022/02/12 11:20:53;;;;;;;1.45;0.70;;;13.30;96.70;;;;;;5117695;27;20047;-83
2022/02/12 11:23:30;;;;;;;2.20;1.05;;;13.40;96.70;;;;;;5130568;27;20583;-83
2022/02/12 11:26:20;;;;;;;1.58;0.45;;;13.50;96.70;;;;;;5117097;27;20039;-82
2022/02/12 11:28:50;;;;;;;1.30;0.50;;;13.50;96.70;;;;;;5110806;27;20047;-84
2022/02/12 11:31:21;;;;;;;2.22;0.43;;;13.60;96.70;;;;;;5120986;27;20047;-84
2022/02/12 11:34:17;;;;;;;4.97;0.57;;;13.70;96.70;;;;;;5120276;27;20047;-84
2022/02/12 11:36:47;;;;;;;1.27;0.40;;;13.80;96.70;;;;;;5103769;27;20588;-83
2022/02/12 11:39:18;;;;;;;2.97;0.50;;;13.90;96.70;;;;;;5119548;27;20031;-84
2022/02/12 11:41:49;;;;;;;1.15;0.40;;;13.80;96.70;;;;;;5102970;27;20119;-81
2022/02/12 11:45:22;;;;;;;2.15;0.40;;;13.90;96.70;;;;;;5119211;27;20233;-79
2022/02/12 11:48:11;;;;;;;7.25;1.10;;;13.90;96.70;;;;;;5098292;28;20043;-79
2022/02/12 11:50:45;;;;;;;1.23;0.65;;;14.00;96.70;;;;;;5110951;28;20324;-80
2022/02/12 11:53:32;;;;;;;2.85;0.30;;;14.00;96.70;;;;;;5096385;28;20051;-80
2022/02/12 11:56:01;;;;;;;;;;;13.90;96.70;;;;;;5095006;28;20036;-80
2022/02/12 11:58:58;;;;;;;2.50;0.47;;;13.90;96.70;;;;;;5080382;28;19989;-80
2022/02/12 12:01:45;;;;;;;0.80;0.40;;;13.90;96.70;;;;;;5080304;28;20038;-80
2022/02/12 12:04:15;;;;;;;1.38;0.43;;;14.00;96.70;;;;;;5076785;28;20063;-79
2022/02/12 12:07:04;;;;;;;1.55;0.52;;;14.20;96.70;;;;;;5101747;28;20138;-80
2022/02/12 12:09:35;;;;;;;1.70;0.40;;;14.20;96.70;;;;;;5078586;28;20052;-81
2022/02/12 12:12:20;;;;;;;1.05;0.40;;;14.20;96.70;;;;;;5097523;28;20054;-80
2022/02/12 12:14:49;;;;;;;2.13;0.57;;;14.30;96.70;;;;;;5091949;28;20376;-80
2022/02/12 12:17:25;;;;;;;1.75;0.47;;;14.30;96.70;;;;;;5096322;28;20031;-81
2022/02/12 12:19:54;;;;;;;0.95;0.60;;;14.30;96.70;;;;;;5080174;28;20047;-81
2022/02/12 12:22:22;;;;;;;1.83;0.57;;;14.40;96.70;;;;;;5080170;28;20048;-81
2022/02/12 12:24:57;;;;;;;1.45;0.60;;;14.50;96.70;;;;;;5078259;28;20227;-81
2022/02/12 12:27:26;;;;;;;0.50;0.30;;;14.60;96.70;;;;;;5078784;28;20138;-80
2022/02/12 12:32:57;;;;;;;2.70;0.60;;;14.60;96.70;;;;;;5097199;28;20043;-81
2022/02/12 12:35:28;;;;;;;1.50;0.57;;;14.80;96.70;;;;;;5096684;28;20127;-80
2022/02/12 12:37:57;;;;;;;1.40;0.35;;;15.00;96.70;;;;;;5079258;28;20044;-81
2022/02/12 12:40:30;;;;;;;3.13;0.50;;;15.00;96.70;;;;;;5080443;28;20042;-81
2022/02/12 12:43:00;;;;;;;1.50;0.50;;;14.90;96.70;;;;;;5097686;28;20089;-81
2022/02/12 12:45:29;;;;;;;1.65;0.38;;;14.80;96.70;;;;;;5097617;28;20085;-82
2022/02/12 12:47:59;;;;;;;1.88;0.50;;;14.80;96.70;;;;;;5081006;28;20040;-81
2022/02/12 12:50:34;;;;;;;3.05;2.13;;;14.70;96.70;;;;;;5080324;28;20048;-80
2022/02/12 12:53:04;;;;;;;2.50;1.95;;;14.70;96.70;;;;;;5096218;28;20040;-81
2022/02/12 12:55:32;;;;;;;2.13;0.55;;;14.80;96.70;;;;;;5089518;28;20131;-81
2022/02/12 12:58:10;;;;;;;1.17;0.35;;;14.80;96.70;;;;;;5083262;28;20438;-81
2022/02/12 13:00:38;;;;;;;1.48;0.40;;;14.70;96.70;;;;;;5081320;28;20048;-82
2022/02/12 13:03:08;;;;;;;2.17;0.40;;;14.80;96.70;;;;;;5064777;28;20040;-82
2022/02/12 13:05:39;;;;;;;1.13;0.38;;;14.80;96.70;;;;;;5099850;28;20044;-80
2022/02/12 13:08:14;;;;;;;1.05;0.30;;;14.90;96.70;;;;;;5065036;28;20048;-81
2022/02/12 13:10:48;;;;;;;2.58;0.75;;;15.00;96.70;;;;;;5080638;28;20089;-81